createdAt,value
2019-02-11T00:02:48.821Z,67.45
2019-02-11T00:07:50.374Z,66.38
2019-02-11T00:12:51.948Z,66.60
2019-02-11T00:17:53.676Z,66.67
2019-02-11T00:22:55.334Z,66.44
2019-02-11T00:27:57.242Z,67.49
2019-02-11T00:32:59.069Z,68.25
2019-02-11T00:38:00.767Z,68.21
2019-02-11T00:43:02.316Z,68.34
2019-02-11T00:48:03.988Z,68.33
2019-02-11T00:53:05.546Z,70.61
2019-02-11T00:58:07.215Z,72.68
2019-02-11T01:03:08.820Z,74.42
2019-02-11T01:08:10.392Z,76.19
2019-02-11T01:13:12.026Z,76.98
2019-02-11T01:18:13.628Z,77.24
2019-02-11T01:23:15.301Z,77.77
2019-02-11T01:28:16.999Z,76.99
2019-02-11T01:33:18.593Z,76.88
2019-02-11T01:38:20.150Z,76.33
2019-02-11T01:43:23.721Z,76.27
2019-02-11T01:48:27.011Z,76.19
2019-02-11T01:53:28.620Z,76.59
2019-02-11T01:58:30.172Z,76.36
2019-02-11T02:03:31.774Z,75.89
2019-02-11T02:08:33.333Z,76.08
2019-02-11T02:13:34.896Z,75.58
2019-02-11T02:18:36.721Z,74.90
2019-02-11T02:23:38.385Z,74.82
2019-02-11T02:28:39.948Z,74.46
2019-02-11T02:33:41.564Z,73.60
2019-02-11T02:38:43.181Z,73.67
2019-02-11T02:43:54.963Z,73.80
2019-02-11T02:48:48.206Z,73.59
2019-02-11T02:53:49.768Z,74.05
2019-02-11T02:58:51.361Z,73.90
2019-02-11T03:03:53.031Z,73.40
2019-02-11T03:08:54.597Z,73.16
2019-02-11T03:14:05.483Z,72.59
2019-02-11T03:19:00.780Z,70.81
2019-02-11T03:24:02.482Z,69.68
2019-02-11T03:29:04.057Z,68.11
2019-02-11T03:34:05.648Z,67.58
2019-02-11T03:39:07.260Z,67.99
2019-02-11T03:44:14.827Z,67.32
2019-02-11T03:49:12.270Z,67.16
2019-02-11T03:54:13.869Z,67.16
2019-02-11T03:59:15.814Z,66.79
2019-02-11T04:04:17.402Z,66.15
2019-02-11T04:09:19.013Z,65.84
2019-02-11T04:14:25.053Z,65.81
2019-02-11T04:19:24.106Z,65.20
2019-02-11T04:24:25.765Z,65.01
2019-02-11T04:29:27.329Z,64.51
2019-02-11T04:34:28.922Z,64.93
2019-02-11T04:39:30.549Z,64.18
2019-02-11T04:44:34.063Z,63.64
2019-02-11T04:49:35.658Z,63.87
2019-02-11T04:54:37.253Z,63.48
2019-02-11T04:59:38.853Z,63.53
2019-02-11T05:04:40.417Z,63.56
2019-02-11T05:09:42.022Z,62.99
2019-02-11T05:14:44.408Z,63.10
2019-02-11T05:19:46.109Z,63.38
2019-02-11T05:24:47.678Z,63.35
2019-02-11T05:29:49.241Z,62.34
2019-02-11T05:34:50.793Z,62.17
2019-02-11T05:39:52.419Z,62.27
2019-02-11T05:44:54.422Z,62.39
2019-02-11T05:49:56.471Z,62.21
2019-02-11T05:54:58.179Z,62.30
2019-02-11T05:59:59.750Z,61.92
2019-02-11T06:05:01.607Z,61.49
2019-02-11T06:10:09.773Z,60.76
2019-02-11T06:15:11.539Z,60.25
2019-02-11T06:20:13.231Z,61.13
2019-02-11T06:25:14.785Z,60.34
2019-02-11T06:30:16.348Z,60.43
2019-02-11T06:35:17.901Z,60.33
2019-02-11T06:40:19.473Z,60.21
2019-02-11T06:45:21.161Z,60.27
2019-02-11T06:50:22.757Z,59.72
2019-02-11T06:55:24.307Z,60.12
2019-02-11T07:00:25.865Z,60.85
2019-02-11T07:05:27.413Z,60.10
2019-02-11T07:10:28.989Z,59.34
2019-02-11T07:15:30.821Z,60.03
2019-02-11T07:20:32.696Z,60.53
2019-02-11T07:25:34.249Z,59.86
2019-02-11T07:30:35.814Z,59.91
2019-02-11T07:35:37.481Z,59.03
2019-02-11T07:40:39.081Z,59.13
2019-02-11T07:45:48.446Z,59.76
2019-02-11T07:50:50.015Z,59.48
2019-02-11T07:55:51.930Z,59.34
2019-02-11T08:00:53.493Z,60.22
2019-02-11T08:05:55.141Z,59.12
2019-02-11T08:10:56.894Z,59.29
2019-02-11T08:15:58.515Z,59.57
2019-02-11T08:21:01.254Z,59.55
2019-02-11T08:26:04.029Z,59.38
2019-02-11T08:31:05.927Z,59.54
2019-02-11T08:36:07.684Z,59.68
2019-02-11T08:41:09.252Z,60.57
2019-02-11T08:46:10.913Z,59.75
2019-02-11T08:51:12.493Z,59.36
2019-02-11T08:56:14.085Z,59.42
2019-02-11T09:01:15.836Z,58.67
2019-02-11T09:06:18.089Z,58.82
2019-02-11T09:11:19.809Z,59.14
2019-02-11T09:16:21.776Z,58.50
2019-02-11T09:21:23.949Z,58.67
2019-02-11T09:26:25.606Z,60.32
2019-02-11T09:31:27.277Z,58.33
2019-02-11T09:36:28.839Z,57.99
2019-02-11T09:41:32.186Z,57.40
2019-02-11T09:46:34.007Z,58.49
2019-02-11T09:51:40.830Z,59.08
2019-02-11T09:56:42.390Z,61.02
2019-02-11T10:01:43.953Z,58.52
2019-02-11T10:06:45.517Z,59.69
2019-02-11T10:11:47.185Z,60.60
2019-02-11T10:16:48.746Z,60.82
2019-02-11T10:21:50.425Z,61.45
2019-02-11T10:26:51.980Z,61.66
2019-02-11T10:31:53.638Z,61.81
2019-02-11T10:36:55.233Z,62.19
2019-02-11T10:41:56.793Z,62.07
2019-02-11T10:46:58.811Z,62.66
2019-02-11T10:52:00.393Z,62.46
2019-02-11T10:57:01.952Z,64.39
2019-02-11T11:02:03.720Z,65.61
2019-02-11T11:07:05.594Z,68.83
2019-02-11T11:12:07.555Z,69.75
2019-02-11T11:17:09.253Z,70.47
2019-02-11T11:22:11.022Z,70.28
2019-02-11T11:27:12.722Z,70.63
2019-02-11T11:32:14.869Z,70.61
2019-02-11T11:37:16.648Z,70.65
2019-02-11T11:42:18.222Z,69.89
2019-02-11T11:47:19.873Z,69.25
2019-02-11T11:52:21.442Z,69.19
2019-02-11T11:57:23.372Z,70.21
2019-02-11T12:02:24.965Z,71.37
2019-02-11T12:07:26.547Z,73.14
2019-02-11T12:12:28.109Z,74.04
2019-02-11T12:17:29.675Z,75.40
2019-02-11T12:22:31.306Z,75.97
2019-02-11T12:27:33.425Z,76.42
2019-02-11T12:32:35.184Z,76.55
2019-02-11T12:37:37.022Z,77.00
2019-02-11T12:42:40.805Z,77.29
2019-02-11T12:47:42.468Z,76.95
2019-02-11T12:52:44.141Z,77.44
2019-02-11T12:57:45.947Z,77.53
2019-02-11T13:02:47.959Z,77.48
2019-02-11T13:07:49.657Z,76.67
2019-02-11T13:12:51.318Z,76.59
2019-02-11T13:17:52.980Z,75.94
2019-02-11T13:22:54.861Z,74.98
2019-02-11T13:27:57.084Z,74.50
2019-02-11T13:32:58.640Z,73.81
2019-02-11T13:38:00.303Z,73.70
2019-02-11T13:43:02.339Z,71.39
2019-02-11T13:48:04.497Z,72.06
2019-02-11T13:53:06.613Z,73.25
2019-02-11T13:58:08.907Z,73.32
2019-02-11T14:03:10.596Z,73.69
2019-02-11T14:08:12.185Z,73.44
2019-02-11T14:13:14.439Z,73.44
2019-02-11T14:18:16.337Z,73.58
2019-02-11T14:23:18.696Z,73.05
2019-02-11T14:28:20.469Z,73.59
2019-02-11T14:33:22.151Z,74.71
2019-02-11T14:38:24.235Z,75.46
2019-02-11T14:43:26.091Z,74.45
2019-02-11T14:48:29.311Z,74.07
2019-02-11T14:53:31.331Z,73.09
2019-02-11T14:58:33.499Z,73.42
2019-02-11T15:03:35.074Z,72.69
2019-02-11T15:08:36.855Z,72.04
2019-02-11T15:13:40.329Z,72.03
2019-02-11T15:18:41.900Z,72.03
2019-02-11T15:23:43.663Z,71.65
2019-02-11T15:28:45.230Z,71.77
2019-02-11T15:33:46.954Z,70.33
2019-02-11T15:38:48.521Z,69.69
2019-02-11T15:43:50.099Z,70.11
2019-02-11T15:48:51.670Z,69.82
2019-02-11T15:53:53.233Z,70.17
2019-02-11T15:58:54.847Z,69.67
2019-02-11T16:03:56.468Z,69.74
2019-02-11T16:09:04.294Z,69.66
2019-02-11T16:14:02.222Z,69.37
2019-02-11T16:19:03.796Z,69.97
2019-02-11T16:24:05.442Z,70.52
2019-02-11T16:29:08.903Z,70.83
2019-02-11T16:34:11.231Z,70.92
2019-02-11T16:39:13.099Z,71.01
2019-02-11T16:44:14.775Z,71.55
2019-02-11T16:49:16.345Z,71.77
2019-02-11T16:54:18.310Z,72.04
2019-02-11T16:59:19.922Z,72.11
2019-02-11T17:04:21.559Z,72.34
2019-02-11T17:09:23.159Z,72.78
2019-02-11T17:14:24.760Z,72.56
2019-02-11T17:19:26.326Z,72.28
2019-02-11T17:24:28.088Z,72.27
2019-02-11T17:29:29.647Z,71.99
2019-02-11T17:34:32.222Z,72.14
2019-02-11T17:39:33.803Z,72.26
2019-02-11T17:44:35.519Z,71.97
2019-02-11T17:49:37.087Z,71.74
2019-02-11T17:54:39.091Z,71.65
2019-02-11T17:59:40.707Z,71.16
2019-02-11T18:04:42.424Z,70.99
2019-02-11T18:09:44.022Z,71.10
2019-02-11T18:14:47.066Z,70.91
2019-02-11T18:19:50.884Z,71.07
2019-02-11T18:24:54.539Z,71.26
2019-02-11T18:29:56.915Z,70.83
2019-02-11T18:34:58.576Z,71.53
2019-02-11T18:40:02.478Z,71.97
2019-02-11T18:45:12.515Z,72.45
2019-02-11T18:50:14.881Z,72.58
2019-02-11T18:55:18.763Z,72.89
2019-02-11T19:00:20.473Z,72.91
2019-02-11T19:05:22.509Z,72.67
2019-02-11T19:10:24.644Z,72.50
2019-02-11T19:15:26.215Z,71.80
2019-02-11T19:20:27.839Z,71.78
2019-02-11T19:25:29.489Z,71.42
2019-02-11T19:30:31.284Z,71.00
2019-02-11T19:35:34.379Z,70.61
2019-02-11T19:40:37.830Z,70.47
2019-02-11T19:45:41.362Z,69.94
2019-02-11T19:50:42.946Z,68.88
2019-02-11T19:55:47.751Z,68.78
2019-02-11T20:00:49.356Z,69.06
2019-02-11T20:05:53.283Z,68.74
2019-02-11T20:10:54.874Z,67.63
2019-02-11T20:15:58.366Z,67.71
2019-02-11T20:21:01.876Z,67.48
2019-02-11T20:26:03.529Z,67.40
2019-02-11T20:31:07.385Z,67.18
2019-02-11T20:36:10.495Z,67.33
2019-02-11T20:41:13.374Z,67.10
2019-02-11T20:46:16.913Z,68.94
2019-02-11T20:51:18.606Z,70.81
2019-02-11T20:56:21.392Z,70.95
2019-02-11T21:01:25.109Z,71.46
2019-02-11T21:06:27.658Z,70.71
2019-02-11T21:11:30.471Z,70.75
2019-02-11T21:16:33.429Z,71.40
2019-02-11T21:21:35.542Z,72.67
2019-02-11T21:26:38.616Z,72.75
2019-02-11T21:31:40.469Z,72.04
2019-02-11T21:36:43.846Z,72.24
2019-02-11T21:41:47.166Z,72.33
2019-02-11T21:46:50.537Z,72.64
2019-02-11T21:51:52.113Z,72.81
2019-02-11T21:56:54.995Z,73.30
2019-02-11T22:01:56.813Z,73.15
2019-02-11T22:07:00.670Z,73.62
2019-02-11T22:12:02.559Z,73.17
2019-02-11T22:17:04.586Z,73.51
2019-02-11T22:22:07.766Z,73.26
2019-02-11T22:27:10.663Z,73.63
2019-02-11T22:32:12.235Z,73.76
2019-02-11T22:37:13.888Z,73.50
2019-02-11T22:42:15.554Z,73.88
2019-02-11T22:47:17.562Z,73.93
2019-02-11T22:52:19.275Z,73.79
2019-02-11T22:57:20.913Z,74.62
2019-02-11T23:02:23.006Z,75.40
2019-02-11T23:07:24.661Z,76.54
2019-02-11T23:12:26.322Z,76.86
2019-02-11T23:17:27.886Z,76.56
2019-02-11T23:22:29.457Z,76.70
2019-02-11T23:27:31.285Z,76.92
2019-02-11T23:32:32.853Z,76.94
2019-02-11T23:37:34.478Z,77.31
2019-02-11T23:42:36.199Z,77.74
2019-02-11T23:47:37.760Z,77.71
2019-02-11T23:52:39.336Z,77.75
2019-02-11T23:57:41.035Z,78.14
